Preview of NWS' New Version of Forecast
This preview is not operational and should not be used for support decisions.

Terminal Aerodrome Forecast (TAF)

Issued by National Weather Service (NWS)

                            
024 
FTUS42 KMFL 250538
TAFMIA
TAF
KMIA 250538Z 2506/2612 14006KT P6SM SCT020 BKN035
     FM251400 12010KT P6SM FEW025 SCT050
     FM260100 12005KT P6SM SCT030=